< < Back
Terminal Aerodrome Forecast


Current Version              Previous Versions:   1  2  3  4  5  6  7  8  9  

Terminal Aerodrome Forecast

282
FTUS42 KMLB 271426 AAB
TAFDAB
TAF AMD
KDAB 271426Z 2714/2812 05012KT P6SM VCSH BKN025 BKN150
     FM271700 06010KT P6SM SCT025 BKN250=

Latest METAR

710
SAUS80 KWBC 281000
MTRDAB
METAR KDAB 280953Z 07011KT 10SM FEW021 SCT034 SCT130 28/25 A2999 RMK AO2
SLP153 T02780250


USA.gov is the U.S. government's official web portal to all federal, state and local government web resources and services.